sensor_id;sensor_type;location;lat;lon;timestamp;temperature;humidity
1351;DHT22;669;50.206;9.998;2022-09-23T00:01:35;6.80;55.70
1351;DHT22;669;50.206;9.998;2022-09-23T00:04:04;6.70;54.70
1351;DHT22;669;50.206;9.998;2022-09-23T00:06:33;6.60;55.90
1351;DHT22;669;50.206;9.998;2022-09-23T00:09:01;6.60;56.10
1351;DHT22;669;50.206;9.998;2022-09-23T00:11:29;6.50;55.70
1351;DHT22;669;50.206;9.998;2022-09-23T00:13:58;6.40;55.50
1351;DHT22;669;50.206;9.998;2022-09-23T00:16:28;6.30;56.40
1351;DHT22;669;50.206;9.998;2022-09-23T00:18:58;6.40;57.40
1351;DHT22;669;50.206;9.998;2022-09-23T00:21:27;6.40;57.40
1351;DHT22;669;50.206;9.998;2022-09-23T00:23:56;6.40;57.40
1351;DHT22;669;50.206;9.998;2022-09-23T00:26:24;6.50;59.00
1351;DHT22;669;50.206;9.998;2022-09-23T00:28:53;6.50;56.70
1351;DHT22;669;50.206;9.998;2022-09-23T00:31:23;6.50;57.50
1351;DHT22;669;50.206;9.998;2022-09-23T00:33:52;6.50;57.00
1351;DHT22;669;50.206;9.998;2022-09-23T00:36:20;6.50;58.20
1351;DHT22;669;50.206;9.998;2022-09-23T00:38:48;6.50;58.20
1351;DHT22;669;50.206;9.998;2022-09-23T00:41:18;6.60;58.40
1351;DHT22;669;50.206;9.998;2022-09-23T00:43:48;6.70;58.40
1351;DHT22;669;50.206;9.998;2022-09-23T00:46:19;6.80;58.90
1351;DHT22;669;50.206;9.998;2022-09-23T00:48:51;6.80;57.80
1351;DHT22;669;50.206;9.998;2022-09-23T00:51:24;6.90;57.80
1351;DHT22;669;50.206;9.998;2022-09-23T00:53:54;6.90;58.50
1351;DHT22;669;50.206;9.998;2022-09-23T00:56:23;6.90;57.90
1351;DHT22;669;50.206;9.998;2022-09-23T00:58:53;6.90;57.80
1351;DHT22;669;50.206;9.998;2022-09-23T01:01:21;6.90;57.00
1351;DHT22;669;50.206;9.998;2022-09-23T01:03:52;6.80;56.80
1351;DHT22;669;50.206;9.998;2022-09-23T01:06:21;6.70;57.60
1351;DHT22;669;50.206;9.998;2022-09-23T01:08:49;6.70;57.60
1351;DHT22;669;50.206;9.998;2022-09-23T01:11:35;6.80;57.70
1351;DHT22;669;50.206;9.998;2022-09-23T01:14:28;6.60;55.00
1351;DHT22;669;50.206;9.998;2022-09-23T01:17:04;6.40;54.80
1351;DHT22;669;50.206;9.998;2022-09-23T01:19:53;6.30;57.10
1351;DHT22;669;50.206;9.998;2022-09-23T01:22:31;6.40;58.30
1351;DHT22;669;50.206;9.998;2022-09-23T01:25:20;6.40;59.60
1351;DHT22;669;50.206;9.998;2022-09-23T01:28:05;6.50;58.50
1351;DHT22;669;50.206;9.998;2022-09-23T01:30:43;6.50;57.50
1351;DHT22;669;50.206;9.998;2022-09-23T01:33:19;6.50;57.50
1351;DHT22;669;50.206;9.998;2022-09-23T01:36:00;6.40;55.40
1351;DHT22;669;50.206;9.998;2022-09-23T01:38:35;6.30;57.30
1351;DHT22;669;50.206;9.998;2022-09-23T01:41:15;6.30;57.50
1351;DHT22;669;50.206;9.998;2022-09-23T01:43:48;6.30;58.00
1351;DHT22;669;50.206;9.998;2022-09-23T01:46:25;6.30;58.20
1351;DHT22;669;50.206;9.998;2022-09-23T01:48:58;6.30;57.40
1351;DHT22;669;50.206;9.998;2022-09-23T01:51:31;6.40;57.80
1351;DHT22;669;50.206;9.998;2022-09-23T01:54:05;6.40;57.40
1351;DHT22;669;50.206;9.998;2022-09-23T01:56:38;6.40;58.20
1351;DHT22;669;50.206;9.998;2022-09-23T01:59:11;6.50;58.20
1351;DHT22;669;50.206;9.998;2022-09-23T02:01:46;6.60;58.00
1351;DHT22;669;50.206;9.998;2022-09-23T02:04:20;6.60;57.60
1351;DHT22;669;50.206;9.998;2022-09-23T02:06:52;6.60;56.80
1351;DHT22;669;50.206;9.998;2022-09-23T02:09:23;6.40;54.90
1351;DHT22;669;50.206;9.998;2022-09-23T02:11:55;6.30;55.30
1351;DHT22;669;50.206;9.998;2022-09-23T02:14:30;6.10;55.30
1351;DHT22;669;50.206;9.998;2022-09-23T02:17:04;6.10;56.10
1351;DHT22;669;50.206;9.998;2022-09-23T02:19:38;6.00;56.40
1351;DHT22;669;50.206;9.998;2022-09-23T02:22:13;6.00;56.20
1351;DHT22;669;50.206;9.998;2022-09-23T02:24:42;5.90;57.00
1351;DHT22;669;50.206;9.998;2022-09-23T02:27:16;6.00;57.90
1351;DHT22;669;50.206;9.998;2022-09-23T02:29:50;6.00;57.10
1351;DHT22;669;50.206;9.998;2022-09-23T02:32:24;6.00;56.20
1351;DHT22;669;50.206;9.998;2022-09-23T02:35:00;6.00;57.10
1351;DHT22;669;50.206;9.998;2022-09-23T02:37:38;6.00;57.10
1351;DHT22;669;50.206;9.998;2022-09-23T02:40:15;6.00;57.10
1351;DHT22;669;50.206;9.998;2022-09-23T02:42:51;5.90;56.40
1351;DHT22;669;50.206;9.998;2022-09-23T02:45:20;5.90;58.10
1351;DHT22;669;50.206;9.998;2022-09-23T02:47:57;6.00;59.20
1351;DHT22;669;50.206;9.998;2022-09-23T02:50:28;6.10;58.90
1351;DHT22;669;50.206;9.998;2022-09-23T02:52:58;6.10;58.50
1351;DHT22;669;50.206;9.998;2022-09-23T02:55:28;6.20;57.20
1351;DHT22;669;50.206;9.998;2022-09-23T02:57:59;6.10;58.00
1351;DHT22;669;50.206;9.998;2022-09-23T03:00:37;6.20;58.30
1351;DHT22;669;50.206;9.998;2022-09-23T03:03:19;6.20;58.40
1351;DHT22;669;50.206;9.998;2022-09-23T03:05:53;6.20;58.10
1351;DHT22;669;50.206;9.998;2022-09-23T03:08:41;6.20;57.10
1351;DHT22;669;50.206;9.998;2022-09-23T03:11:14;6.10;57.20
1351;DHT22;669;50.206;9.998;2022-09-23T03:13:52;6.10;57.60
1351;DHT22;669;50.206;9.998;2022-09-23T03:16:29;6.10;57.70
1351;DHT22;669;50.206;9.998;2022-09-23T03:19:06;6.10;58.20
1351;DHT22;669;50.206;9.998;2022-09-23T03:21:42;6.10;57.20
1351;DHT22;669;50.206;9.998;2022-09-23T03:24:13;5.90;54.70
1351;DHT22;669;50.206;9.998;2022-09-23T03:26:45;5.80;55.90
1351;DHT22;669;50.206;9.998;2022-09-23T03:29:14;5.80;57.40
1351;DHT22;669;50.206;9.998;2022-09-23T03:31:43;5.80;57.00
1351;DHT22;669;50.206;9.998;2022-09-23T03:34:17;5.80;57.60
1351;DHT22;669;50.206;9.998;2022-09-23T03:36:51;5.80;58.00
1351;DHT22;669;50.206;9.998;2022-09-23T03:39:30;5.80;58.60
1351;DHT22;669;50.206;9.998;2022-09-23T03:42:03;5.90;58.30
1351;DHT22;669;50.206;9.998;2022-09-23T03:44:34;5.90;58.20
1351;DHT22;669;50.206;9.998;2022-09-23T03:47:05;5.90;58.50
1351;DHT22;669;50.206;9.998;2022-09-23T03:49:36;5.90;57.30
1351;DHT22;669;50.206;9.998;2022-09-23T03:52:06;5.90;57.90
1351;DHT22;669;50.206;9.998;2022-09-23T03:54:34;5.90;57.00
1351;DHT22;669;50.206;9.998;2022-09-23T03:57:02;5.90;58.30
1351;DHT22;669;50.206;9.998;2022-09-23T03:59:30;5.90;58.40
1351;DHT22;669;50.206;9.998;2022-09-23T04:01:59;6.00;58.20
1351;DHT22;669;50.206;9.998;2022-09-23T04:04:28;5.90;57.00
1351;DHT22;669;50.206;9.998;2022-09-23T04:07:01;5.80;55.60
1351;DHT22;669;50.206;9.998;2022-09-23T04:09:30;5.60;55.40
1351;DHT22;669;50.206;9.998;2022-09-23T04:11:58;5.50;56.20
1351;DHT22;669;50.206;9.998;2022-09-23T04:14:26;5.40;57.20
1351;DHT22;669;50.206;9.998;2022-09-23T04:16:54;5.40;56.60
1351;DHT22;669;50.206;9.998;2022-09-23T04:19:22;5.30;56.20
1351;DHT22;669;50.206;9.998;2022-09-23T04:21:50;5.20;56.10
1351;DHT22;669;50.206;9.998;2022-09-23T04:24:19;5.10;55.40
1351;DHT22;669;50.206;9.998;2022-09-23T04:26:50;5.00;55.60
1351;DHT22;669;50.206;9.998;2022-09-23T04:29:19;4.90;55.00
1351;DHT22;669;50.206;9.998;2022-09-23T04:31:47;4.70;56.00
1351;DHT22;669;50.206;9.998;2022-09-23T04:34:16;4.70;56.10
1351;DHT22;669;50.206;9.998;2022-09-23T04:36:46;4.60;56.00
1351;DHT22;669;50.206;9.998;2022-09-23T04:39:15;4.60;57.10
1351;DHT22;669;50.206;9.998;2022-09-23T04:41:45;4.60;56.60
1351;DHT22;669;50.206;9.998;2022-09-23T04:44:13;4.70;57.20
1351;DHT22;669;50.206;9.998;2022-09-23T04:46:42;4.70;58.60
1351;DHT22;669;50.206;9.998;2022-09-23T04:49:13;4.70;57.20
1351;DHT22;669;50.206;9.998;2022-09-23T04:51:42;4.70;55.40
1351;DHT22;669;50.206;9.998;2022-09-23T04:54:11;4.60;56.10
1351;DHT22;669;50.206;9.998;2022-09-23T04:56:40;4.50;56.40
1351;DHT22;669;50.206;9.998;2022-09-23T04:59:09;4.50;55.80
1351;DHT22;669;50.206;9.998;2022-09-23T05:01:37;4.40;55.80
1351;DHT22;669;50.206;9.998;2022-09-23T05:04:07;4.30;56.10
1351;DHT22;669;50.206;9.998;2022-09-23T05:06:36;4.30;57.50
1351;DHT22;669;50.206;9.998;2022-09-23T05:09:06;4.30;56.20
1351;DHT22;669;50.206;9.998;2022-09-23T05:11:34;4.30;58.80
1351;DHT22;669;50.206;9.998;2022-09-23T05:14:02;4.60;60.70
1351;DHT22;669;50.206;9.998;2022-09-23T05:16:32;4.80;60.50
1351;DHT22;669;50.206;9.998;2022-09-23T05:19:00;4.90;60.00
1351;DHT22;669;50.206;9.998;2022-09-23T05:21:29;5.10;60.10
1351;DHT22;669;50.206;9.998;2022-09-23T05:23:57;5.20;59.70
1351;DHT22;669;50.206;9.998;2022-09-23T05:26:28;5.20;58.90
1351;DHT22;669;50.206;9.998;2022-09-23T05:28:57;5.20;58.40
1351;DHT22;669;50.206;9.998;2022-09-23T05:31:26;5.20;57.40
1351;DHT22;669;50.206;9.998;2022-09-23T05:33:57;5.10;55.70
1351;DHT22;669;50.206;9.998;2022-09-23T05:36:26;5.10;57.20
1351;DHT22;669;50.206;9.998;2022-09-23T05:38:54;5.30;57.30
1351;DHT22;669;50.206;9.998;2022-09-23T05:41:24;5.60;59.00
1351;DHT22;669;50.206;9.998;2022-09-23T05:43:54;6.10;59.20
1351;DHT22;669;50.206;9.998;2022-09-23T05:46:24;6.60;58.00
1351;DHT22;669;50.206;9.998;2022-09-23T05:48:56;7.00;57.90
1351;DHT22;669;50.206;9.998;2022-09-23T05:51:29;7.20;54.70
1351;DHT22;669;50.206;9.998;2022-09-23T05:53:58;7.30;55.50
1351;DHT22;669;50.206;9.998;2022-09-23T05:56:29;7.50;55.40
1351;DHT22;669;50.206;9.998;2022-09-23T05:58:59;7.70;54.60
1351;DHT22;669;50.206;9.998;2022-09-23T06:01:29;7.90;53.70
1351;DHT22;669;50.206;9.998;2022-09-23T06:04:03;8.10;53.60
1351;DHT22;669;50.206;9.998;2022-09-23T06:06:32;8.30;52.60
1351;DHT22;669;50.206;9.998;2022-09-23T06:09:02;8.50;51.30
1351;DHT22;669;50.206;9.998;2022-09-23T06:11:31;8.80;51.40
1351;DHT22;669;50.206;9.998;2022-09-23T06:14:00;9.00;51.60
1351;DHT22;669;50.206;9.998;2022-09-23T06:16:29;9.40;50.60
1351;DHT22;669;50.206;9.998;2022-09-23T06:18:58;9.70;50.10
1351;DHT22;669;50.206;9.998;2022-09-23T06:21:35;9.90;50.00
1351;DHT22;669;50.206;9.998;2022-09-23T06:24:04;10.00;49.00
1351;DHT22;669;50.206;9.998;2022-09-23T06:26:33;10.30;49.20
1351;DHT22;669;50.206;9.998;2022-09-23T06:29:03;10.50;48.70
1351;DHT22;669;50.206;9.998;2022-09-23T06:31:31;10.60;48.50
1351;DHT22;669;50.206;9.998;2022-09-23T06:34:00;10.80;48.00
1351;DHT22;669;50.206;9.998;2022-09-23T06:36:39;10.90;47.80
1351;DHT22;669;50.206;9.998;2022-09-23T06:39:11;11.10;47.30
1351;DHT22;669;50.206;9.998;2022-09-23T06:41:38;11.30;47.90
1351;DHT22;669;50.206;9.998;2022-09-23T06:44:06;11.40;47.40
1351;DHT22;669;50.206;9.998;2022-09-23T06:46:34;11.40;46.90
1351;DHT22;669;50.206;9.998;2022-09-23T06:49:02;11.40;47.10
1351;DHT22;669;50.206;9.998;2022-09-23T06:51:30;11.30;47.60
1351;DHT22;669;50.206;9.998;2022-09-23T06:53:59;11.00;47.70
1351;DHT22;669;50.206;9.998;2022-09-23T06:56:28;11.10;48.40
1351;DHT22;669;50.206;9.998;2022-09-23T06:59:03;11.10;49.50
1351;DHT22;669;50.206;9.998;2022-09-23T07:01:31;11.40;49.00
1351;DHT22;669;50.206;9.998;2022-09-23T07:04:00;11.70;48.60
1351;DHT22;669;50.206;9.998;2022-09-23T07:06:28;11.90;47.80
1351;DHT22;669;50.206;9.998;2022-09-23T07:08:56;12.00;47.80
1351;DHT22;669;50.206;9.998;2022-09-23T07:11:25;12.00;48.30
1351;DHT22;669;50.206;9.998;2022-09-23T07:13:53;12.30;47.80
1351;DHT22;669;50.206;9.998;2022-09-23T07:16:21;12.60;47.20
1351;DHT22;669;50.206;9.998;2022-09-23T07:18:49;12.80;47.50
1351;DHT22;669;50.206;9.998;2022-09-23T07:21:18;13.30;46.70
1351;DHT22;669;50.206;9.998;2022-09-23T07:23:48;13.60;46.50
1351;DHT22;669;50.206;9.998;2022-09-23T07:26:18;13.90;45.60
1351;DHT22;669;50.206;9.998;2022-09-23T07:28:52;14.20;44.10
1351;DHT22;669;50.206;9.998;2022-09-23T07:31:21;14.40;44.40
1351;DHT22;669;50.206;9.998;2022-09-23T07:34:05;14.50;45.00
1351;DHT22;669;50.206;9.998;2022-09-23T07:36:33;14.80;43.70
1351;DHT22;669;50.206;9.998;2022-09-23T07:39:03;15.00;41.80
1351;DHT22;669;50.206;9.998;2022-09-23T07:41:32;15.30;40.50
1351;DHT22;669;50.206;9.998;2022-09-23T07:44:02;15.40;40.60
1351;DHT22;669;50.206;9.998;2022-09-23T07:46:33;15.60;42.60
1351;DHT22;669;50.206;9.998;2022-09-23T07:49:03;15.80;41.80
1351;DHT22;669;50.206;9.998;2022-09-23T07:51:33;15.90;41.80
1351;DHT22;669;50.206;9.998;2022-09-23T07:54:04;15.80;41.30
1351;DHT22;669;50.206;9.998;2022-09-23T07:56:33;15.50;40.60
1351;DHT22;669;50.206;9.998;2022-09-23T07:59:03;15.30;38.90
1351;DHT22;669;50.206;9.998;2022-09-23T08:01:35;15.10;40.10
1351;DHT22;669;50.206;9.998;2022-09-23T08:04:05;14.70;40.60
1351;DHT22;669;50.206;9.998;2022-09-23T08:06:33;14.60;43.00
1351;DHT22;669;50.206;9.998;2022-09-23T08:09:02;14.60;41.50
1351;DHT22;669;50.206;9.998;2022-09-23T08:11:30;14.50;42.00
1351;DHT22;669;50.206;9.998;2022-09-23T08:13:58;14.40;40.90
1351;DHT22;669;50.206;9.998;2022-09-23T08:16:27;14.40;42.70
1351;DHT22;669;50.206;9.998;2022-09-23T08:18:55;14.30;41.90
1351;DHT22;669;50.206;9.998;2022-09-23T08:21:23;14.30;42.40
1351;DHT22;669;50.206;9.998;2022-09-23T08:23:51;14.30;41.00
1351;DHT22;669;50.206;9.998;2022-09-23T08:26:19;14.40;41.30
1351;DHT22;669;50.206;9.998;2022-09-23T08:28:48;14.50;41.60
1351;DHT22;669;50.206;9.998;2022-09-23T08:31:20;14.50;42.20
1351;DHT22;669;50.206;9.998;2022-09-23T08:33:53;14.70;41.70
1351;DHT22;669;50.206;9.998;2022-09-23T08:36:22;14.90;42.20
1351;DHT22;669;50.206;9.998;2022-09-23T08:38:50;15.10;40.80
1351;DHT22;669;50.206;9.998;2022-09-23T08:41:26;15.30;40.70
1351;DHT22;669;50.206;9.998;2022-09-23T08:43:58;15.50;38.90
1351;DHT22;669;50.206;9.998;2022-09-23T08:46:30;15.60;40.00
1351;DHT22;669;50.206;9.998;2022-09-23T08:49:00;15.60;40.10
1351;DHT22;669;50.206;9.998;2022-09-23T08:51:35;15.60;40.80
1351;DHT22;669;50.206;9.998;2022-09-23T08:54:08;15.80;38.10
1351;DHT22;669;50.206;9.998;2022-09-23T08:56:37;15.90;40.20
1351;DHT22;669;50.206;9.998;2022-09-23T08:59:10;16.00;39.90
1351;DHT22;669;50.206;9.998;2022-09-23T09:01:42;16.10;39.50
1351;DHT22;669;50.206;9.998;2022-09-23T09:04:17;16.40;38.90
1351;DHT22;669;50.206;9.998;2022-09-23T09:06:50;16.50;38.10
1351;DHT22;669;50.206;9.998;2022-09-23T09:09:26;16.60;38.20
1351;DHT22;669;50.206;9.998;2022-09-23T09:12:00;16.60;37.30
1351;DHT22;669;50.206;9.998;2022-09-23T09:14:35;16.70;37.80
1351;DHT22;669;50.206;9.998;2022-09-23T09:17:05;17.00;38.40
1351;DHT22;669;50.206;9.998;2022-09-23T09:19:53;17.30;39.40
1351;DHT22;669;50.206;9.998;2022-09-23T09:22:40;17.70;38.20
1351;DHT22;669;50.206;9.998;2022-09-23T09:25:37;17.90;37.20
1351;DHT22;669;50.206;9.998;2022-09-23T09:28:22;18.00;38.10
1351;DHT22;669;50.206;9.998;2022-09-23T09:31:01;18.20;38.60
1351;DHT22;669;50.206;9.998;2022-09-23T09:33:42;18.50;35.80
1351;DHT22;669;50.206;9.998;2022-09-23T09:36:20;18.40;33.50
1351;DHT22;669;50.206;9.998;2022-09-23T09:39:02;18.30;33.90
1351;DHT22;669;50.206;9.998;2022-09-23T09:41:42;18.10;34.90
1351;DHT22;669;50.206;9.998;2022-09-23T09:44:22;18.00;34.80
1351;DHT22;669;50.206;9.998;2022-09-23T09:47:18;18.00;34.10
1351;DHT22;669;50.206;9.998;2022-09-23T09:50:02;18.10;37.40
1351;DHT22;669;50.206;9.998;2022-09-23T09:52:56;18.20;37.60
1351;DHT22;669;50.206;9.998;2022-09-23T09:56:01;18.40;36.60
1351;DHT22;669;50.206;9.998;2022-09-23T09:58:35;18.70;34.60
1351;DHT22;669;50.206;9.998;2022-09-23T10:01:18;19.00;33.80
1351;DHT22;669;50.206;9.998;2022-09-23T10:03:46;19.20;34.50
1351;DHT22;669;50.206;9.998;2022-09-23T10:06:19;19.50;34.60
1351;DHT22;669;50.206;9.998;2022-09-23T10:09:04;19.70;34.20
1351;DHT22;669;50.206;9.998;2022-09-23T10:11:36;19.80;32.50
1351;DHT22;669;50.206;9.998;2022-09-23T10:14:10;20.00;31.50
1351;DHT22;669;50.206;9.998;2022-09-23T10:16:39;20.10;30.40
1351;DHT22;669;50.206;9.998;2022-09-23T10:19:16;20.50;29.70
1351;DHT22;669;50.206;9.998;2022-09-23T10:21:50;20.60;32.20
1351;DHT22;669;50.206;9.998;2022-09-23T10:24:23;20.60;29.80
1351;DHT22;669;50.206;9.998;2022-09-23T10:26:55;20.60;30.90
1351;DHT22;669;50.206;9.998;2022-09-23T10:29:28;20.70;29.50
1351;DHT22;669;50.206;9.998;2022-09-23T10:32:22;20.80;28.50
1351;DHT22;669;50.206;9.998;2022-09-23T10:34:54;21.00;28.10
1351;DHT22;669;50.206;9.998;2022-09-23T10:37:31;21.10;29.20
1351;DHT22;669;50.206;9.998;2022-09-23T10:40:12;21.20;28.20
1351;DHT22;669;50.206;9.998;2022-09-23T10:43:18;21.20;28.80
1351;DHT22;669;50.206;9.998;2022-09-23T10:46:06;21.60;27.00
1351;DHT22;669;50.206;9.998;2022-09-23T10:51:47;21.20;26.30
1351;DHT22;669;50.206;9.998;2022-09-23T10:54:26;21.10;28.20
1351;DHT22;669;50.206;9.998;2022-09-23T10:57:02;21.20;28.00
1351;DHT22;669;50.206;9.998;2022-09-23T10:59:59;21.30;26.00
1351;DHT22;669;50.206;9.998;2022-09-23T11:02:53;21.20;26.80
1351;DHT22;669;50.206;9.998;2022-09-23T11:05:32;21.20;28.10
1351;DHT22;669;50.206;9.998;2022-09-23T11:08:15;21.40;27.10
1351;DHT22;669;50.206;9.998;2022-09-23T11:10:58;21.50;24.10
1351;DHT22;669;50.206;9.998;2022-09-23T11:13:40;21.10;25.20
1351;DHT22;669;50.206;9.998;2022-09-23T11:16:16;20.80;26.50
1351;DHT22;669;50.206;9.998;2022-09-23T11:19:08;20.80;27.60
1351;DHT22;669;50.206;9.998;2022-09-23T11:21:53;21.10;25.40
1351;DHT22;669;50.206;9.998;2022-09-23T11:24:38;21.20;25.30
1351;DHT22;669;50.206;9.998;2022-09-23T11:27:16;20.80;24.20
1351;DHT22;669;50.206;9.998;2022-09-23T11:30:09;20.80;23.80
1351;DHT22;669;50.206;9.998;2022-09-23T11:33:04;20.70;24.60
1351;DHT22;669;50.206;9.998;2022-09-23T11:35:44;20.60;25.10
1351;DHT22;669;50.206;9.998;2022-09-23T11:38:18;20.50;24.90
1351;DHT22;669;50.206;9.998;2022-09-23T11:40:55;20.60;25.00
1351;DHT22;669;50.206;9.998;2022-09-23T11:43:25;20.80;24.40
1351;DHT22;669;50.206;9.998;2022-09-23T11:46:01;21.10;24.30
1351;DHT22;669;50.206;9.998;2022-09-23T11:48:34;21.30;23.80
1351;DHT22;669;50.206;9.998;2022-09-23T11:51:10;21.70;24.10
1351;DHT22;669;50.206;9.998;2022-09-23T11:53:44;21.90;25.10
1351;DHT22;669;50.206;9.998;2022-09-23T11:56:15;22.00;24.80
1351;DHT22;669;50.206;9.998;2022-09-23T11:59:05;22.00;24.70
1351;DHT22;669;50.206;9.998;2022-09-23T12:01:40;21.60;23.30
1351;DHT22;669;50.206;9.998;2022-09-23T12:04:18;21.50;23.50
1351;DHT22;669;50.206;9.998;2022-09-23T12:06:52;21.50;24.80
1351;DHT22;669;50.206;9.998;2022-09-23T12:09:26;21.60;23.60
1351;DHT22;669;50.206;9.998;2022-09-23T12:12:21;21.30;24.30
1351;DHT22;669;50.206;9.998;2022-09-23T12:14:57;21.70;24.20
1351;DHT22;669;50.206;9.998;2022-09-23T12:17:52;22.20;23.60
1351;DHT22;669;50.206;9.998;2022-09-23T12:20:41;22.50;24.20
1351;DHT22;669;50.206;9.998;2022-09-23T12:23:20;22.40;24.10
1351;DHT22;669;50.206;9.998;2022-09-23T12:25:55;22.30;23.40
1351;DHT22;669;50.206;9.998;2022-09-23T12:28:26;21.80;23.30
1351;DHT22;669;50.206;9.998;2022-09-23T12:30:57;22.00;24.40
1351;DHT22;669;50.206;9.998;2022-09-23T12:33:28;21.80;25.00
1351;DHT22;669;50.206;9.998;2022-09-23T12:36:02;21.70;23.60
1351;DHT22;669;50.206;9.998;2022-09-23T12:38:33;21.60;23.60
1351;DHT22;669;50.206;9.998;2022-09-23T12:41:18;21.60;22.70
1351;DHT22;669;50.206;9.998;2022-09-23T12:43:50;21.80;22.30
1351;DHT22;669;50.206;9.998;2022-09-23T12:46:21;22.10;22.60
1351;DHT22;669;50.206;9.998;2022-09-23T12:49:01;22.20;23.40
1351;DHT22;669;50.206;9.998;2022-09-23T12:51:30;22.50;22.70
1351;DHT22;669;50.206;9.998;2022-09-23T12:54:22;22.30;23.60
1351;DHT22;669;50.206;9.998;2022-09-23T12:57:11;22.50;24.90
1351;DHT22;669;50.206;9.998;2022-09-23T13:00:13;22.40;24.10
1351;DHT22;669;50.206;9.998;2022-09-23T13:03:01;22.70;21.90
1351;DHT22;669;50.206;9.998;2022-09-23T13:05:51;22.50;24.00
1351;DHT22;669;50.206;9.998;2022-09-23T13:08:55;22.30;22.30
1351;DHT22;669;50.206;9.998;2022-09-23T13:11:42;22.20;23.70
1351;DHT22;669;50.206;9.998;2022-09-23T13:17:22;22.20;24.00
1351;DHT22;669;50.206;9.998;2022-09-23T13:23:22;21.80;22.50
1351;DHT22;669;50.206;9.998;2022-09-23T13:25:53;21.20;23.30
1351;DHT22;669;50.206;9.998;2022-09-23T13:28:32;20.90;23.10
1351;DHT22;669;50.206;9.998;2022-09-23T13:31:03;20.70;24.60
1351;DHT22;669;50.206;9.998;2022-09-23T13:33:39;20.70;24.50
1351;DHT22;669;50.206;9.998;2022-09-23T13:36:13;20.80;24.10
1351;DHT22;669;50.206;9.998;2022-09-23T13:38:43;20.80;25.30
1351;DHT22;669;50.206;9.998;2022-09-23T13:41:14;20.70;24.10
1351;DHT22;669;50.206;9.998;2022-09-23T13:43:46;20.70;25.10
1351;DHT22;669;50.206;9.998;2022-09-23T13:46:16;20.80;24.30
1351;DHT22;669;50.206;9.998;2022-09-23T13:48:46;20.70;24.10
1351;DHT22;669;50.206;9.998;2022-09-23T13:51:19;20.40;25.00
1351;DHT22;669;50.206;9.998;2022-09-23T13:53:53;20.40;25.30
1351;DHT22;669;50.206;9.998;2022-09-23T13:56:22;20.40;24.80
1351;DHT22;669;50.206;9.998;2022-09-23T13:58:51;20.10;25.00
1351;DHT22;669;50.206;9.998;2022-09-23T14:01:28;19.80;24.40
1351;DHT22;669;50.206;9.998;2022-09-23T14:03:58;19.60;24.90
1351;DHT22;669;50.206;9.998;2022-09-23T14:06:27;19.30;25.20
1351;DHT22;669;50.206;9.998;2022-09-23T14:08:59;19.20;26.30
1351;DHT22;669;50.206;9.998;2022-09-23T14:11:29;19.10;26.50
1351;DHT22;669;50.206;9.998;2022-09-23T14:14:00;19.10;25.60
1351;DHT22;669;50.206;9.998;2022-09-23T14:16:37;19.10;27.50
1351;DHT22;669;50.206;9.998;2022-09-23T14:19:08;19.20;26.40
1351;DHT22;669;50.206;9.998;2022-09-23T14:21:40;19.20;27.10
1351;DHT22;669;50.206;9.998;2022-09-23T14:24:18;19.30;26.60
1351;DHT22;669;50.206;9.998;2022-09-23T14:26:48;19.20;27.20
1351;DHT22;669;50.206;9.998;2022-09-23T14:29:17;19.20;26.70
1351;DHT22;669;50.206;9.998;2022-09-23T14:31:52;19.20;26.10
1351;DHT22;669;50.206;9.998;2022-09-23T14:34:43;19.20;26.70
1351;DHT22;669;50.206;9.998;2022-09-23T14:37:24;19.40;26.70
1351;DHT22;669;50.206;9.998;2022-09-23T14:40:14;19.60;28.20
1351;DHT22;669;50.206;9.998;2022-09-23T14:42:45;19.80;27.10
1351;DHT22;669;50.206;9.998;2022-09-23T14:45:17;20.00;26.60
1351;DHT22;669;50.206;9.998;2022-09-23T14:47:47;20.00;26.30
1351;DHT22;669;50.206;9.998;2022-09-23T14:50:19;20.00;26.00
1351;DHT22;669;50.206;9.998;2022-09-23T14:53:31;19.90;25.80
1351;DHT22;669;50.206;9.998;2022-09-23T14:56:13;19.80;26.20
1351;DHT22;669;50.206;9.998;2022-09-23T14:58:50;19.80;26.80
1351;DHT22;669;50.206;9.998;2022-09-23T15:01:36;19.80;27.60
1351;DHT22;669;50.206;9.998;2022-09-23T15:04:14;19.90;27.60
1351;DHT22;669;50.206;9.998;2022-09-23T15:06:46;19.90;27.80
1351;DHT22;669;50.206;9.998;2022-09-23T15:09:20;20.00;26.50
1351;DHT22;669;50.206;9.998;2022-09-23T15:11:56;20.00;26.50
1351;DHT22;669;50.206;9.998;2022-09-23T15:14:27;19.80;27.60
1351;DHT22;669;50.206;9.998;2022-09-23T15:17:13;19.80;27.50
1351;DHT22;669;50.206;9.998;2022-09-23T15:19:43;19.70;27.90
1351;DHT22;669;50.206;9.998;2022-09-23T15:22:13;19.60;27.20
1351;DHT22;669;50.206;9.998;2022-09-23T15:24:43;19.50;27.30
1351;DHT22;669;50.206;9.998;2022-09-23T15:27:29;19.40;28.20
1351;DHT22;669;50.206;9.998;2022-09-23T15:30:09;19.10;28.60
1351;DHT22;669;50.206;9.998;2022-09-23T15:32:41;18.90;29.00
1351;DHT22;669;50.206;9.998;2022-09-23T15:35:11;18.80;29.60
1351;DHT22;669;50.206;9.998;2022-09-23T15:37:41;18.60;29.40
1351;DHT22;669;50.206;9.998;2022-09-23T15:40:18;18.40;29.80
1351;DHT22;669;50.206;9.998;2022-09-23T15:42:49;18.30;30.00
1351;DHT22;669;50.206;9.998;2022-09-23T15:45:20;18.30;30.40
1351;DHT22;669;50.206;9.998;2022-09-23T15:47:53;18.00;30.40
1351;DHT22;669;50.206;9.998;2022-09-23T15:50:22;17.90;31.10
1351;DHT22;669;50.206;9.998;2022-09-23T15:52:50;17.70;32.40
1351;DHT22;669;50.206;9.998;2022-09-23T15:55:19;17.60;34.80
1351;DHT22;669;50.206;9.998;2022-09-23T15:57:50;17.40;36.80
1351;DHT22;669;50.206;9.998;2022-09-23T16:00:18;17.20;37.80
1351;DHT22;669;50.206;9.998;2022-09-23T16:02:48;17.00;39.40
1351;DHT22;669;50.206;9.998;2022-09-23T16:05:21;16.90;38.10
1351;DHT22;669;50.206;9.998;2022-09-23T16:07:50;16.80;38.90
1351;DHT22;669;50.206;9.998;2022-09-23T16:10:21;16.60;39.40
1351;DHT22;669;50.206;9.998;2022-09-23T16:12:52;16.60;40.80
1351;DHT22;669;50.206;9.998;2022-09-23T16:15:22;16.40;41.90
1351;DHT22;669;50.206;9.998;2022-09-23T16:17:50;16.30;42.20
1351;DHT22;669;50.206;9.998;2022-09-23T16:20:19;16.20;41.70
1351;DHT22;669;50.206;9.998;2022-09-23T16:22:51;16.20;42.00
1351;DHT22;669;50.206;9.998;2022-09-23T16:25:20;16.10;42.70
1351;DHT22;669;50.206;9.998;2022-09-23T16:27:49;16.00;43.30
1351;DHT22;669;50.206;9.998;2022-09-23T16:30:21;16.00;45.00
1351;DHT22;669;50.206;9.998;2022-09-23T16:32:49;15.90;44.30
1351;DHT22;669;50.206;9.998;2022-09-23T16:35:18;15.80;45.10
1351;DHT22;669;50.206;9.998;2022-09-23T16:37:46;15.70;46.00
1351;DHT22;669;50.206;9.998;2022-09-23T16:40:16;15.60;45.90
1351;DHT22;669;50.206;9.998;2022-09-23T16:42:45;15.50;47.30
1351;DHT22;669;50.206;9.998;2022-09-23T16:45:16;15.40;48.00
1351;DHT22;669;50.206;9.998;2022-09-23T16:47:45;15.30;48.70
1351;DHT22;669;50.206;9.998;2022-09-23T16:50:16;15.20;49.10
1351;DHT22;669;50.206;9.998;2022-09-23T16:52:44;15.10;49.40
1351;DHT22;669;50.206;9.998;2022-09-23T16:55:13;15.00;49.40
1351;DHT22;669;50.206;9.998;2022-09-23T16:57:41;15.00;49.20
1351;DHT22;669;50.206;9.998;2022-09-23T17:00:12;14.90;49.60
1351;DHT22;669;50.206;9.998;2022-09-23T17:03:00;14.80;49.90
1351;DHT22;669;50.206;9.998;2022-09-23T17:05:47;14.60;50.20
1351;DHT22;669;50.206;9.998;2022-09-23T17:08:16;14.50;50.40
1351;DHT22;669;50.206;9.998;2022-09-23T17:10:49;14.40;50.20
1351;DHT22;669;50.206;9.998;2022-09-23T17:13:22;14.40;50.00
1351;DHT22;669;50.206;9.998;2022-09-23T17:15:51;14.10;50.40
1351;DHT22;669;50.206;9.998;2022-09-23T17:18:21;13.90;50.70